Time;durP1;ratioP1;P1;durP2;ratioP2;P2;SDS_P1;SDS_P2;PMS_P1;PMS_P2;Temp;Humidity;BMP_temperature;BMP_pressure;BME280_temperature;BME280_humidity;BME280_pressure;Samples;Min_cycle;Max_cycle;Signal;HPM_P1;HPM_P2
2023/09/11 00:03:09;;;;;;;;;;;;;;;24.96;51.58;95767.16;10497468;28;1517;-62
2023/09/11 00:08:09;;;;;;;;;;;;;;;24.97;51.48;95768.72;10517501;28;1582;-62
2023/09/11 00:13:09;;;;;;;;;;;;;;;24.97;51.79;95767.94;10517909;28;1478;-62
2023/09/11 00:18:10;;;;;;;;;;;;;;;24.97;51.78;95763.44;10533344;28;1905;-62
2023/09/11 00:23:10;;;;;;;;;;;;;;;24.96;51.58;95759.19;10529439;28;1479;-62
2023/09/11 00:28:10;;;;;;;;;;;;;;;24.95;51.68;95755.00;10554441;28;1605;-62
2023/09/11 00:33:11;;;;;;;;;;;;;;;24.97;51.59;95750.16;10532167;28;1410;-62
2023/09/11 00:38:11;;;;;;;;;;;;;;;24.97;51.74;95749.38;10506962;28;1906;-62
2023/09/11 00:43:11;;;;;;;;;;;;;;;24.97;51.95;95754.69;10509921;28;5144;-62
2023/09/11 00:48:12;;;;;;;;;;;;;;;24.97;51.46;95744.06;10529028;28;2429;-62
2023/09/11 00:53:12;;;;;;;;;;;;;;;24.97;51.72;95744.06;10534782;28;1561;-62
2023/09/11 00:58:16;;;;;;;;;;;;;;;24.97;51.50;95746.72;10521358;28;1981;-62
2023/09/11 01:03:16;;;;;;;;;;;;;;;24.97;51.61;95744.06;10548632;28;1560;-62
2023/09/11 01:08:16;;;;;;;;;;;;;;;24.96;51.56;95745.13;10530360;28;1592;-62
2023/09/11 01:13:16;;;;;;;;;;;;;;;24.97;51.78;95738.75;10522844;28;1540;-62
2023/09/11 01:18:19;;;;;;;;;;;;;;;24.96;51.71;95743.28;10548296;28;1905;-62
2023/09/11 01:23:32;;;;;;;;;;;;;;;24.97;51.65;95738.75;10526860;28;1689;-62
2023/09/11 01:28:32;;;;;;;;;;;;;;;24.97;51.67;95730.81;10522134;28;1515;-62
2023/09/11 01:33:32;;;;;;;;;;;;;;;24.97;51.57;95739.56;10525480;28;1111;-62
2023/09/11 01:38:32;;;;;;;;;;;;;;;24.96;51.48;95727.38;10501854;28;1933;-62
2023/09/11 01:43:37;;;;;;;;;;;;;;;24.96;51.84;95721.28;10531391;28;5223;-62
2023/09/11 01:48:37;;;;;;;;;;;;;;;24.96;51.71;95727.38;10534952;28;1547;-62
2023/09/11 01:53:37;;;;;;;;;;;;;;;24.97;51.64;95722.84;10534540;28;1487;-62
2023/09/11 01:58:37;;;;;;;;;;;;;;;24.97;51.61;95722.84;10516430;28;1909;-62
2023/09/11 02:03:40;;;;;;;;;;;;;;;24.97;51.53;95723.66;10530474;28;1200;-62
2023/09/11 02:08:40;;;;;;;;;;;;;;;24.96;51.53;95708.81;10494577;28;1504;-62
2023/09/11 02:13:41;;;;;;;;;;;;;;;24.95;51.52;95701.94;10530315;28;1141;-62
2023/09/11 02:18:41;;;;;;;;;;;;;;;24.96;51.73;95711.47;10511584;28;1977;-62
2023/09/11 02:23:42;;;;;;;;;;;;;;;24.96;51.51;95713.31;10525035;28;1474;-62
2023/09/11 02:28:42;;;;;;;;;;;;;;;24.96;51.41;95705.38;10508117;28;1511;-62
2023/09/11 02:33:42;;;;;;;;;;;;;;;24.97;51.64;95691.03;10524629;28;1138;-62
2023/09/11 02:38:42;;;;;;;;;;;;;;;24.96;51.46;95695.53;10509191;28;2327;-64
2023/09/11 02:43:43;;;;;;;;;;;;;;;24.97;51.48;95688.38;10526907;28;5063;-62
2023/09/11 02:48:44;;;;;;;;;;;;;;;24.96;51.46;95692.91;10520289;28;1517;-62
2023/09/11 02:53:44;;;;;;;;;;;;;;;24.96;51.50;95687.59;10529602;28;1502;-62
2023/09/11 02:58:44;;;;;;;;;;;;;;;24.96;51.45;95678.84;10520231;28;1983;-62
2023/09/11 03:03:46;;;;;;;;;;;;;;;24.96;51.44;95679.63;10512756;28;1451;-62
2023/09/11 03:08:46;;;;;;;;;;;;;;;24.96;51.45;95689.44;10511981;28;1513;-63
2023/09/11 03:13:47;;;;;;;;;;;;;;;24.96;51.37;95689.44;10543165;28;1011;-63
2023/09/11 03:18:47;;;;;;;;;;;;;;;24.96;51.52;95681.50;10532770;28;1902;-63
2023/09/11 03:23:48;;;;;;;;;;;;;;;24.96;51.40;95670.88;10523193;28;1448;-62
2023/09/11 03:28:49;;;;;;;;;;;;;;;24.95;51.45;95672.78;10518988;28;1354;-62
2023/09/11 03:33:49;;;;;;;;;;;;;;;24.96;51.59;95673.53;10523794;28;2290;-63
2023/09/11 03:38:49;;;;;;;;;;;;;;;24.96;51.26;95674.34;10521397;28;1910;-63
2023/09/11 03:43:50;;;;;;;;;;;;;;;24.96;51.59;95682.28;10533158;28;5023;-62
2023/09/11 03:48:50;;;;;;;;;;;;;;;24.96;51.37;95689.44;10507615;28;1543;-63
2023/09/11 03:53:50;;;;;;;;;;;;;;;24.96;51.49;95684.16;10479778;28;1612;-62
2023/09/11 03:58:50;;;;;;;;;;;;;;;24.95;51.49;95683.38;10525007;28;1893;-62
2023/09/11 04:03:51;;;;;;;;;;;;;;;24.95;51.63;95682.59;10531891;28;1205;-62
2023/09/11 04:08:51;;;;;;;;;;;;;;;24.95;51.65;95670.13;10530081;28;1316;-62
2023/09/11 04:13:51;;;;;;;;;;;;;;;24.95;51.60;95670.13;10530767;28;1438;-63
2023/09/11 04:18:51;;;;;;;;;;;;;;;24.95;51.46;95679.94;10534700;28;1914;-62
2023/09/11 04:23:52;;;;;;;;;;;;;;;24.95;51.56;95683.38;10522261;28;1352;-62
2023/09/11 04:28:54;;;;;;;;;;;;;;;24.95;51.56;95682.59;10505415;28;1071;-62
2023/09/11 04:33:55;;;;;;;;;;;;;;;24.96;51.61;95676.19;10530058;28;2319;-62
2023/09/11 04:38:55;;;;;;;;;;;;;;;24.96;51.69;95678.84;10515208;28;1914;-63
2023/09/11 04:43:55;;;;;;;;;;;;;;;24.96;51.47;95678.84;10529115;28;5186;-62
2023/09/11 04:48:56;;;;;;;;;;;;;;;24.95;51.61;95674.66;10526634;28;1572;-62
2023/09/11 04:53:56;;;;;;;;;;;;;;;24.96;51.59;95684.16;10502811;28;1533;-62
2023/09/11 04:58:56;;;;;;;;;;;;;;;24.95;51.61;95682.59;10527614;28;1894;-62
2023/09/11 05:03:56;;;;;;;;;;;;;;;24.95;51.47;95698.50;10522759;28;1474;-62
2023/09/11 05:08:57;;;;;;;;;;;;;;;24.95;51.45;95686.03;10526623;28;1391;-63
2023/09/11 05:13:57;;;;;;;;;;;;;;;24.95;51.52;95698.50;10530623;28;1339;-62
2023/09/11 05:18:58;;;;;;;;;;;;;;;24.94;51.63;95691.63;10534775;28;1894;-63
2023/09/11 05:23:59;;;;;;;;;;;;;;;24.95;51.35;95696.66;10521251;28;1367;-63
2023/09/11 05:28:59;;;;;;;;;;;;;;;24.95;51.43;95687.91;10516372;28;2307;-64
2023/09/11 05:33:59;;;;;;;;;;;;;;;24.95;51.53;95694.00;10546307;28;1525;-64
2023/09/11 05:38:59;;;;;;;;;;;;;;;24.95;51.52;95696.66;10509731;28;1906;-63
2023/09/11 05:44:00;;;;;;;;;;;;;;;24.96;51.44;95702.72;10520247;28;5088;-63
2023/09/11 05:49:00;;;;;;;;;;;;;;;24.95;51.37;95709.91;10524799;28;1560;-63
2023/09/11 05:54:00;;;;;;;;;;;;;;;24.95;51.41;95709.13;10512009;28;1605;-63
2023/09/11 05:59:00;;;;;;;;;;;;;;;24.96;51.35;95710.66;10520602;28;1967;-64
2023/09/11 06:04:01;;;;;;;;;;;;;;;24.96;51.28;95705.38;10532325;28;1340;-63
2023/09/11 06:09:03;;;;;;;;;;;;;;;24.96;51.56;95705.38;10533470;28;1410;-63
2023/09/11 06:14:04;;;;;;;;;;;;;;;24.96;51.33;95702.72;10523777;28;1347;-63
2023/09/11 06:19:04;;;;;;;;;;;;;;;24.95;51.38;95704.59;10525867;28;1973;-63
2023/09/11 06:24:04;;;;;;;;;;;;;;;24.96;51.49;95702.72;10487279;28;2404;-63
2023/09/11 06:29:05;;;;;;;;;;;;;;;24.96;51.41;95706.16;10522410;28;1118;-63
2023/09/11 06:34:05;;;;;;;;;;;;;;;24.96;51.52;95702.72;10536341;28;1460;-64
2023/09/11 06:39:05;;;;;;;;;;;;;;;24.96;51.51;95705.38;10523549;28;1913;-63
2023/09/11 06:44:06;;;;;;;;;;;;;;;24.96;51.54;95706.16;10530784;28;5051;-63
2023/09/11 06:49:06;;;;;;;;;;;;;;;24.96;51.52;95708.81;10500114;28;1259;-63
2023/09/11 06:54:09;;;;;;;;;;;;;;;24.97;51.54;95709.59;10525799;28;1431;-64
2023/09/11 06:59:09;;;;;;;;;;;;;;;24.96;51.79;95702.72;10512702;28;1971;-63
2023/09/11 07:04:11;;;;;;;;;;;;;;;24.97;51.47;95704.28;10525902;28;1027;-63
2023/09/11 07:09:11;;;;;;;;;;;;;;;24.98;51.64;95700.53;10504655;28;1452;-64
2023/09/11 07:14:14;;;;;;;;;;;;;;;24.99;51.71;95702.13;10521994;28;1031;-64
2023/09/11 07:19:14;;;;;;;;;;;;;;;24.97;51.86;95702.44;10540864;28;2330;-63
2023/09/11 07:24:15;;;;;;;;;;;;;;;24.97;51.79;95699.00;10527048;28;1554;-64
2023/09/11 07:29:15;;;;;;;;;;;;;;;24.99;51.85;95707.44;10506144;28;1563;-63
2023/09/11 07:34:15;;;;;;;;;;;;;;;24.98;51.86;95708.50;10516955;28;1363;-64
2023/09/11 07:39:16;;;;;;;;;;;;;;;24.99;51.78;95713.53;10532745;28;1975;-63
2023/09/11 07:44:16;;;;;;;;;;;;;;;24.99;51.78;95708.22;10505614;28;5303;-63
2023/09/11 07:49:16;;;;;;;;;;;;;;;24.99;51.94;95705.56;10519653;28;1054;-63
2023/09/11 07:54:17;;;;;;;;;;;;;;;24.99;51.65;95705.56;10534595;28;1572;-63
2023/09/11 07:59:17;;;;;;;;;;;;;;;25.00;51.76;95709.75;10501746;28;1906;-63
2023/09/11 08:04:17;;;;;;;;;;;;;;;24.99;51.86;95700.25;10500828;28;1442;-63
2023/09/11 08:09:17;;;;;;;;;;;;;;;25.01;51.83;95699.94;10515711;28;1663;-63
2023/09/11 08:14:19;;;;;;;;;;;;;;;25.01;51.92;95705.25;10525139;28;1418;-63
2023/09/11 08:19:19;;;;;;;;;;;;;;;25.01;51.84;95705.25;10515256;28;2798;-63
2023/09/11 08:24:21;;;;;;;;;;;;;;;25.02;51.73;95698.84;10523951;28;1581;-64
2023/09/11 08:29:21;;;;;;;;;;;;;;;25.02;51.64;95694.34;10528155;28;1316;-64
2023/09/11 08:34:21;;;;;;;;;;;;;;;25.03;51.77;95695.13;10514324;28;1537;-63
2023/09/11 08:39:22;;;;;;;;;;;;;;;25.03;51.69;95695.13;10537487;28;1905;-64
2023/09/11 08:44:22;;;;;;;;;;;;;;;25.03;51.89;95693.25;10523155;28;5225;-63
2023/09/11 08:49:22;;;;;;;;;;;;;;;25.05;51.71;95700.91;10549157;28;951;-63
2023/09/11 08:54:24;;;;;;;;;;;;;;;25.06;52.05;95691.09;10508073;28;1603;-63
2023/09/11 08:59:24;;;;;;;;;;;;;;;25.07;51.94;95685.47;10532224;28;1909;-63
2023/09/11 09:04:25;;;;;;;;;;;;;;;25.06;51.93;95689.19;10538371;28;1375;-63
2023/09/11 09:09:25;;;;;;;;;;;;;;;25.08;51.95;95692.34;10514993;28;1638;-64
2023/09/11 09:14:29;;;;;;;;;;;;;;;25.08;52.17;95679.06;10543166;28;2309;-63
2023/09/11 09:19:29;;;;;;;;;;;;;;;25.09;52.07;95680.66;10527581;28;1913;-64
2023/09/11 09:24:29;;;;;;;;;;;;;;;25.10;51.99;95671.59;10527452;28;1595;-63
2023/09/11 09:29:34;;;;;;;;;;;;;;;25.10;52.19;95674.25;10495751;28;1479;-63
2023/09/11 09:34:35;;;;;;;;;;;;;;;25.11;52.02;95661.78;10524835;28;1672;-64
2023/09/11 09:39:39;;;;;;;;;;;;;;;25.12;52.01;95658.03;10532320;28;1918;-64
2023/09/11 09:44:48;;;;;;;;;;;;;;;25.13;52.32;95660.38;10510092;28;5427;-63
2023/09/11 09:49:49;;;;;;;;;;;;;;;25.14;52.46;95654.00;10517679;28;1487;-63
2023/09/11 09:54:51;;;;;;;;;;;;;;;25.14;52.22;95656.66;10512352;28;1597;-63
2023/09/11 09:59:52;;;;;;;;;;;;;;;25.15;52.29;95650.25;10540518;28;1967;-64
2023/09/11 10:04:56;;;;;;;;;;;;;;;25.16;52.23;95643.88;10529107;28;1433;-64
2023/09/11 10:09:56;;;;;;;;;;;;;;;25.17;52.11;95628.72;10527047;28;2404;-63
2023/09/11 10:14:57;;;;;;;;;;;;;;;25.18;52.19;95627.66;10529753;28;1366;-63
2023/09/11 10:19:59;;;;;;;;;;;;;;;25.18;52.37;95623.13;10499802;28;1890;-63
2023/09/11 10:24:59;;;;;;;;;;;;;;;25.19;52.40;95608.75;10525464;28;1562;-65
2023/09/11 10:30:02;;;;;;;;;;;;;;;25.19;52.29;95619.38;10527718;28;1035;-63
2023/09/11 10:35:03;;;;;;;;;;;;;;;25.21;52.25;95611.09;10535813;28;1367;-63
2023/09/11 10:40:04;;;;;;;;;;;;;;;25.23;52.04;95614.22;10537478;28;5094;-65
2023/09/11 10:45:04;;;;;;;;;;;;;;;25.22;52.60;95604.72;10528232;28;1425;-64
2023/09/11 10:50:05;;;;;;;;;;;;;;;25.22;52.39;95594.91;10522500;28;1363;-63
2023/09/11 10:55:06;;;;;;;;;;;;;;;25.23;52.13;95585.84;10543277;28;1419;-64
2023/09/11 11:00:09;;;;;;;;;;;;;;;25.24;52.36;95581.31;10532613;28;1897;-69
2023/09/11 11:05:15;;;;;;;;;;;;;;;25.25;52.50;95583.66;10526513;28;2417;-64
2023/09/11 11:10:15;;;;;;;;;;;;;;;25.26;52.28;95577.28;10517117;28;1226;-63
2023/09/11 11:15:19;;;;;;;;;;;;;;;25.25;52.26;95575.69;10533719;28;1451;-63
2023/09/11 11:20:19;;;;;;;;;;;;;;;25.26;52.53;95574.63;10534177;28;1967;-63
2023/09/11 11:25:19;;;;;;;;;;;;;;;25.28;52.54;95571.66;10531507;28;1384;-62
2023/09/11 11:30:19;;;;;;;;;;;;;;;25.29;52.36;95570.56;10515466;28;1281;-63
2023/09/11 11:35:20;;;;;;;;;;;;;;;25.30;52.33;95572.94;10518024;28;1415;-63
2023/09/11 11:40:20;;;;;;;;;;;;;;;25.30;52.41;95570.28;10511517;28;5161;-63
2023/09/11 11:45:20;;;;;;;;;;;;;;;25.31;52.55;95553.25;10533258;28;1376;-62
2023/09/11 11:50:21;;;;;;;;;;;;;;;25.32;52.38;95562.78;10540108;28;1375;-63
2023/09/11 11:55:23;;;;;;;;;;;;;;;25.32;52.44;95549.53;10523720;28;1048;-63
2023/09/11 12:00:23;;;;;;;;;;;;;;;25.34;52.30;95557.16;10514439;28;2279;-62
2023/09/11 12:05:23;;;;;;;;;;;;;;;25.34;52.77;95557.94;10514790;28;1661;-63
2023/09/11 12:10:23;;;;;;;;;;;;;;;25.35;52.44;95554.19;10527891;28;1583;-63
2023/09/11 12:15:24;;;;;;;;;;;;;;;25.35;52.73;95548.88;10547221;28;1506;-63
2023/09/11 12:20:24;;;;;;;;;;;;;;;25.36;52.52;95547.81;10539409;28;1898;-63
2023/09/11 12:25:25;;;;;;;;;;;;;;;25.37;52.66;95549.34;10531799;28;1388;-63
2023/09/11 12:30:25;;;;;;;;;;;;;;;25.38;52.48;95548.28;10523815;28;1138;-63
2023/09/11 12:35:31;;;;;;;;;;;;;;;25.38;52.63;95540.31;10504716;28;1393;-62
2023/09/11 12:40:32;;;;;;;;;;;;;;;25.39;52.74;95531.25;10538318;28;5265;-62
2023/09/11 12:45:32;;;;;;;;;;;;;;;25.41;52.48;95531.00;10520473;28;1407;-63
2023/09/11 12:50:32;;;;;;;;;;;;;;;25.41;52.59;95533.66;10527035;28;1372;-63
2023/09/11 12:55:32;;;;;;;;;;;;;;;25.41;53.10;95531.75;10542205;28;1984;-63
2023/09/11 13:00:34;;;;;;;;;;;;;;;25.43;52.32;95518.19;10535994;28;1451;-62
2023/09/11 13:05:34;;;;;;;;;;;;;;;25.44;52.46;95530.38;10519302;28;1693;-62
2023/09/11 13:10:35;;;;;;;;;;;;;;;25.44;52.32;95531.16;10539202;28;1102;-62
2023/09/11 13:15:36;;;;;;;;;;;;;;;25.45;52.46;95508.06;10529845;28;1910;-63
2023/09/11 13:20:36;;;;;;;;;;;;;;;25.45;52.43;95514.13;10506029;28;1363;-62
2023/09/11 13:25:36;;;;;;;;;;;;;;;25.46;52.45;95507.75;10527000;28;1209;-61
2023/09/11 13:30:37;;;;;;;;;;;;;;;25.46;52.56;95497.13;10536479;28;1465;-61
2023/09/11 13:35:37;;;;;;;;;;;;;;;25.47;52.39;95501.31;10514868;28;1901;-62
2023/09/11 13:40:37;;;;;;;;;;;;;;;25.48;52.57;95494.94;10528967;28;4960;-62
2023/09/11 13:45:37;;;;;;;;;;;;;;;25.48;52.49;95489.63;10540075;28;1439;-62
2023/09/11 13:50:38;;;;;;;;;;;;;;;25.49;52.61;95501.78;10521008;28;1380;-62
2023/09/11 13:55:39;;;;;;;;;;;;;;;25.48;52.51;95486.97;10535519;28;2258;-62
2023/09/11 14:00:39;;;;;;;;;;;;;;;25.49;52.41;95485.88;10541412;28;1364;-62
2023/09/11 14:05:40;;;;;;;;;;;;;;;25.51;52.56;95485.59;10543590;28;1359;-62
2023/09/11 14:10:40;;;;;;;;;;;;;;;25.50;52.39;95486.66;10509454;28;1395;-61
2023/09/11 14:15:40;;;;;;;;;;;;;;;25.52;52.43;95487.13;10522380;28;1913;-61
2023/09/11 14:20:40;;;;;;;;;;;;;;;25.51;52.38;95482.94;10524019;28;1423;-62
2023/09/11 14:25:41;;;;;;;;;;;;;;;25.51;52.49;95483.69;10533917;28;1430;-61
2023/09/11 14:30:41;;;;;;;;;;;;;;;25.52;52.41;95481.81;10528910;28;991;-61
2023/09/11 14:35:41;;;;;;;;;;;;;;;25.52;52.56;95472.00;10524376;28;1958;-62
2023/09/11 14:40:41;;;;;;;;;;;;;;;25.52;52.38;95464.03;10533469;28;5138;-61
2023/09/11 14:45:42;;;;;;;;;;;;;;;25.54;52.45;95469.03;10504682;28;1337;-62
2023/09/11 14:50:42;;;;;;;;;;;;;;;25.53;52.26;95465.59;10507265;28;1363;-62
2023/09/11 14:55:42;;;;;;;;;;;;;;;25.53;52.40;95465.59;10533117;28;1918;-62
2023/09/11 15:00:43;;;;;;;;;;;;;;;25.54;52.52;95461.06;10532270;28;1438;-61
2023/09/11 15:05:43;;;;;;;;;;;;;;;25.53;52.43;95457.63;10504228;28;1363;-62
2023/09/11 15:10:44;;;;;;;;;;;;;;;25.55;52.50;95458.13;10490285;28;1465;-62
2023/09/11 15:15:48;;;;;;;;;;;;;;;25.58;51.90;95454.03;10515647;28;1978;-63
2023/09/11 15:20:48;;;;;;;;;;;;;;;25.61;48.56;95448.91;10525063;28;1406;-63
2023/09/11 15:25:48;;;;;;;;;;;;;;;25.56;49.22;95443.75;10539840;28;1490;-64
2023/09/11 15:30:52;;;;;;;;;;;;;;;25.51;47.34;95441.22;10502261;28;1408;-65
2023/09/11 15:36:00;;;;;;;;;;;;;;;25.48;47.00;95436.56;10523945;28;1905;-63
2023/09/11 15:41:04;;;;;;;;;;;;;;;25.46;46.80;95436.09;10521412;28;5065;-62
2023/09/11 15:46:04;;;;;;;;;;;;;;;25.46;47.01;95438.75;10538522;28;2389;-62
2023/09/11 15:51:05;;;;;;;;;;;;;;;25.45;46.69;95437.16;10502154;28;1713;-61
2023/09/11 15:56:06;;;;;;;;;;;;;;;25.42;47.39;95439.69;10506952;28;1975;-61
2023/09/11 16:01:06;;;;;;;;;;;;;;;25.42;47.59;95442.31;10523770;28;1455;-61
2023/09/11 16:06:06;;;;;;;;;;;;;;;25.42;47.58;95435.16;10517499;28;1482;-62
2023/09/11 16:11:07;;;;;;;;;;;;;;;25.42;47.23;95432.50;10519333;28;1431;-61
2023/09/11 16:16:07;;;;;;;;;;;;;;;25.42;47.23;95437.81;10517459;28;1984;-61
2023/09/11 16:21:07;;;;;;;;;;;;;;;25.39;46.99;95432.31;10517431;28;1431;-62
2023/09/11 16:26:08;;;;;;;;;;;;;;;25.41;47.56;95441.53;10521929;28;1335;-61
2023/09/11 16:31:08;;;;;;;;;;;;;;;25.40;47.12;95444.47;10516550;28;1709;-61
2023/09/11 16:36:08;;;;;;;;;;;;;;;25.41;47.05;95443.44;10518040;28;1914;-61
2023/09/11 16:41:08;;;;;;;;;;;;;;;25.40;46.97;95444.47;10498159;28;2285;-60
2023/09/11 16:46:09;;;;;;;;;;;;;;;25.40;47.47;95447.13;10513856;28;1633;-61
2023/09/11 16:51:09;;;;;;;;;;;;;;;25.40;46.84;95447.13;10488344;28;1914;-62
2023/09/11 16:56:10;;;;;;;;;;;;;;;25.39;47.14;95441.03;10520830;28;1962;-61
2023/09/11 17:01:10;;;;;;;;;;;;;;;25.39;47.41;95445.59;10531751;28;1527;-62
2023/09/11 17:06:10;;;;;;;;;;;;;;;25.39;46.65;95443.69;10526439;28;1545;-62
2023/09/11 17:11:10;;;;;;;;;;;;;;;25.38;46.74;95452.75;10505106;28;1555;-62
2023/09/11 17:16:11;;;;;;;;;;;;;;;25.40;46.73;95455.09;10521630;28;1910;-63
2023/09/11 17:21:11;;;;;;;;;;;;;;;25.39;46.52;95450.91;10505414;28;1553;-62
2023/09/11 17:26:12;;;;;;;;;;;;;;;25.39;46.79;95453.53;10514766;28;1474;-62
2023/09/11 17:31:13;;;;;;;;;;;;;;;25.39;46.72;95459.63;10535519;28;1473;-62
2023/09/11 17:36:13;;;;;;;;;;;;;;;25.39;46.65;95450.91;10535791;28;1914;-62
2023/09/11 17:41:14;;;;;;;;;;;;;;;25.39;46.93;95454.31;10527540;28;5090;-62
2023/09/11 17:46:14;;;;;;;;;;;;;;;25.39;46.91;95459.63;10513479;28;1549;-62
2023/09/11 17:51:17;;;;;;;;;;;;;;;25.38;46.66;95460.72;10497081;28;1396;-62
2023/09/11 17:56:17;;;;;;;;;;;;;;;25.40;47.07;95468.38;10489338;28;1914;-62
2023/09/11 18:01:18;;;;;;;;;;;;;;;25.40;46.89;95468.38;10532289;28;1406;-62
2023/09/11 18:06:19;;;;;;;;;;;;;;;25.40;47.40;95477.09;10526119;28;1470;-62
2023/09/11 18:11:19;;;;;;;;;;;;;;;25.40;47.26;95477.09;10517400;28;1617;-62
2023/09/11 18:16:20;;;;;;;;;;;;;;;25.40;47.31;95471.81;10532245;28;1909;-62
2023/09/11 18:21:20;;;;;;;;;;;;;;;25.41;47.42;95476.03;10516237;28;1526;-62
2023/09/11 18:26:21;;;;;;;;;;;;;;;25.41;47.64;95473.38;10505976;28;1489;-62
2023/09/11 18:31:21;;;;;;;;;;;;;;;25.43;47.83;95478.41;10522045;28;1635;-62
2023/09/11 18:36:21;;;;;;;;;;;;;;;25.44;47.84;95477.28;10520102;28;2516;-62
2023/09/11 18:41:22;;;;;;;;;;;;;;;25.44;47.84;95487.91;10504392;28;5031;-62
2023/09/11 18:46:22;;;;;;;;;;;;;;;25.45;48.05;95492.13;10515460;28;1487;-61
2023/09/11 18:51:23;;;;;;;;;;;;;;;25.44;47.96;95494.00;10521650;28;1451;-62
2023/09/11 18:56:23;;;;;;;;;;;;;;;25.45;48.21;95492.13;10522041;28;1969;-62
2023/09/11 19:01:23;;;;;;;;;;;;;;;25.45;48.12;95495.56;10516559;28;1444;-62
2023/09/11 19:06:23;;;;;;;;;;;;;;;25.46;48.10;95491.03;10518519;28;1474;-62
2023/09/11 19:11:24;;;;;;;;;;;;;;;25.46;48.46;95483.84;10519782;28;1781;-62
2023/09/11 19:16:24;;;;;;;;;;;;;;;25.46;48.44;95486.50;10523674;28;1922;-62
2023/09/11 19:21:25;;;;;;;;;;;;;;;25.46;48.33;95491.81;10520364;28;1439;-62
2023/09/11 19:26:26;;;;;;;;;;;;;;;25.46;48.47;95497.13;10523559;28;1491;-62
2023/09/11 19:31:28;;;;;;;;;;;;;;;25.47;48.53;95503.97;10535050;28;2297;-62
2023/09/11 19:36:28;;;;;;;;;;;;;;;25.47;48.65;95493.38;10520792;28;1890;-62
2023/09/11 19:41:28;;;;;;;;;;;;;;;25.47;48.86;95493.38;10525489;28;5050;-62
2023/09/11 19:46:28;;;;;;;;;;;;;;;25.47;49.00;95496.03;10521866;28;1553;-62
2023/09/11 19:51:29;;;;;;;;;;;;;;;25.49;48.89;95498.38;10519718;28;1568;-62
2023/09/11 19:56:29;;;;;;;;;;;;;;;25.48;48.89;95486.97;10519949;28;1918;-62
2023/09/11 20:01:30;;;;;;;;;;;;;;;25.49;49.06;95485.88;10514112;28;1474;-62
2023/09/11 20:06:31;;;;;;;;;;;;;;;25.49;49.11;95485.88;10490470;28;1343;-62
2023/09/11 20:11:31;;;;;;;;;;;;;;;25.49;49.18;95485.13;10538530;28;1811;-64
2023/09/11 20:16:31;;;;;;;;;;;;;;;25.49;49.26;95477.91;10516120;28;1973;-62
2023/09/11 20:21:31;;;;;;;;;;;;;;;25.49;49.23;95480.56;10529779;28;1390;-62
2023/09/11 20:26:32;;;;;;;;;;;;;;;25.50;49.20;95474.19;10506067;28;2297;-62
2023/09/11 20:31:32;;;;;;;;;;;;;;;25.50;49.27;95471.53;10513880;28;1474;-62
2023/09/11 20:36:32;;;;;;;;;;;;;;;25.49;49.38;95472.59;10520174;28;1978;-62
2023/09/11 20:41:33;;;;;;;;;;;;;;;25.51;49.39;95472.31;10526762;28;5053;-62
2023/09/11 20:46:33;;;;;;;;;;;;;;;25.51;49.58;95461.69;10521729;28;1625;-62
2023/09/11 20:51:33;;;;;;;;;;;;;;;25.51;49.44;95467.75;10507371;28;1770;-62
2023/09/11 20:56:35;;;;;;;;;;;;;;;25.39;50.27;95464.91;10517509;28;2025;-63
2023/09/11 21:01:36;;;;;;;;;;;;;;;25.34;50.58;95465.09;10537222;28;1776;-63
2023/09/11 21:06:36;;;;;;;;;;;;;;;25.32;50.77;95469.13;10528129;28;1561;-64
2023/09/11 21:11:37;;;;;;;;;;;;;;;25.31;50.88;95473.66;10525644;28;1490;-64
2023/09/11 21:16:37;;;;;;;;;;;;;;;25.30;51.05;95472.09;10507854;28;1898;-63
2023/09/11 21:21:38;;;;;;;;;;;;;;;25.33;51.02;95470.69;10514248;28;1533;-64
2023/09/11 21:26:38;;;;;;;;;;;;;;;25.35;50.94;95463.97;10527139;28;2230;-62
2023/09/11 21:31:39;;;;;;;;;;;;;;;25.38;51.03;95475.84;10502060;28;1527;-62
2023/09/11 21:36:41;;;;;;;;;;;;;;;25.40;51.07;95471.81;10491766;28;1970;-61
2023/09/11 21:41:41;;;;;;;;;;;;;;;25.29;51.15;95470.53;10528943;28;5058;-62
2023/09/11 21:46:42;;;;;;;;;;;;;;;25.22;51.14;95469.44;10519993;28;1525;-62
2023/09/11 21:51:42;;;;;;;;;;;;;;;25.30;50.91;95471.31;10541238;27;1604;-62
2023/09/11 21:56:42;;;;;;;;;;;;;;;25.21;51.04;95468.66;10544805;27;1906;-62
2023/09/11 22:01:43;;;;;;;;;;;;;;;25.22;51.09;95462.25;10507957;28;1539;-62
2023/09/11 22:06:43;;;;;;;;;;;;;;;25.19;51.12;95457.56;10525934;28;1463;-62
2023/09/11 22:11:44;;;;;;;;;;;;;;;25.05;51.20;95454.25;10506651;28;1738;-61
2023/09/11 22:16:44;;;;;;;;;;;;;;;24.96;51.47;95461.41;10534318;28;1909;-62
2023/09/11 22:21:45;;;;;;;;;;;;;;;24.89;51.52;95461.09;10522506;28;2033;-62
2023/09/11 22:26:45;;;;;;;;;;;;;;;24.81;51.78;95451.25;10531254;28;1443;-62
2023/09/11 22:31:45;;;;;;;;;;;;;;;24.69;52.01;95446.47;10526922;28;1527;-62
2023/09/11 22:36:46;;;;;;;;;;;;;;;24.59;52.01;95444.09;10530216;28;1969;-62
2023/09/11 22:41:46;;;;;;;;;;;;;;;24.57;52.23;95448.13;10524068;28;5127;-62
2023/09/11 22:46:46;;;;;;;;;;;;;;;24.49;52.14;95443.59;10531138;28;1461;-62
2023/09/11 22:51:47;;;;;;;;;;;;;;;24.42;52.24;95440.63;10523088;28;1507;-62
2023/09/11 22:56:47;;;;;;;;;;;;;;;24.34;52.46;95444.75;10524931;28;1906;-62
2023/09/11 23:01:47;;;;;;;;;;;;;;;24.24;52.79;95448.47;10528626;28;1644;-62
2023/09/11 23:06:47;;;;;;;;;;;;;;;24.22;52.69;95452.50;10509411;28;1600;-62
2023/09/11 23:11:48;;;;;;;;;;;;;;;24.18;52.63;95436.44;10513967;28;1686;-62
2023/09/11 23:16:48;;;;;;;;;;;;;;;24.17;52.63;95450.00;10521556;28;2798;-62
2023/09/11 23:21:48;;;;;;;;;;;;;;;24.11;52.79;95451.22;10522871;28;1655;-62
2023/09/11 23:26:51;;;;;;;;;;;;;;;24.06;53.02;95464.56;10529789;28;1535;-62
2023/09/11 23:31:52;;;;;;;;;;;;;;;24.09;52.91;95459.44;10507489;28;1463;-62
2023/09/11 23:36:53;;;;;;;;;;;;;;;24.10;52.83;95457.56;10528742;28;1906;-62
2023/09/11 23:41:53;;;;;;;;;;;;;;;24.09;52.55;95456.78;10523804;28;5090;-62
2023/09/11 23:46:53;;;;;;;;;;;;;;;24.11;52.59;95448.56;10530100;28;1486;-62
2023/09/11 23:51:53;;;;;;;;;;;;;;;24.09;52.57;95453.38;10526519;28;1472;-62
2023/09/11 23:56:54;;;;;;;;;;;;;;;24.04;52.60;95446.34;10531842;28;1894;-62
